sensor_id;sensor_type;location;lat;lon;timestamp;P1;durP1;ratioP1;P2;durP2;ratioP2
71303;SDS011;59091;47.446;19.148;2022-09-09T00:00:11;0.90;;;0.90;;
71303;SDS011;59091;47.446;19.148;2022-09-09T00:02:39;1.23;;;1.10;;
71303;SDS011;59091;47.446;19.148;2022-09-09T00:08:02;2.05;;;1.00;;
71303;SDS011;59091;47.446;19.148;2022-09-09T00:10:30;1.00;;;1.00;;
71303;SDS011;59091;47.446;19.148;2022-09-09T00:16:02;1.05;;;1.05;;
71303;SDS011;59091;47.446;19.148;2022-09-09T00:18:40;2.25;;;1.10;;
71303;SDS011;59091;47.446;19.148;2022-09-09T00:21:26;1.45;;;1.08;;
71303;SDS011;59091;47.446;19.148;2022-09-09T00:23:58;1.20;;;1.10;;
71303;SDS011;59091;47.446;19.148;2022-09-09T00:28:57;1.73;;;1.10;;
71303;SDS011;59091;47.446;19.148;2022-09-09T00:31:42;0.90;;;0.90;;
71303;SDS011;59091;47.446;19.148;2022-09-09T00:34:14;0.82;;;0.82;;
71303;SDS011;59091;47.446;19.148;2022-09-09T00:36:43;1.17;;;1.10;;
71303;SDS011;59091;47.446;19.148;2022-09-09T00:47:30;2.10;;;1.10;;
71303;SDS011;59091;47.446;19.148;2022-09-09T00:50:11;1.08;;;1.08;;
71303;SDS011;59091;47.446;19.148;2022-09-09T00:55:21;1.00;;;1.00;;
71303;SDS011;59091;47.446;19.148;2022-09-09T00:58:06;1.25;;;1.20;;
71303;SDS011;59091;47.446;19.148;2022-09-09T01:00:43;1.13;;;1.10;;
71303;SDS011;59091;47.446;19.148;2022-09-09T01:08:58;2.22;;;1.30;;
71303;SDS011;59091;47.446;19.148;2022-09-09T01:11:43;1.30;;;1.20;;
71303;SDS011;59091;47.446;19.148;2022-09-09T01:25:18;1.45;;;1.35;;
71303;SDS011;59091;47.446;19.148;2022-09-09T01:27:45;1.38;;;1.27;;
71303;SDS011;59091;47.446;19.148;2022-09-09T01:30:14;1.27;;;1.10;;
71303;SDS011;59091;47.446;19.148;2022-09-09T01:32:43;1.10;;;1.10;;
71303;SDS011;59091;47.446;19.148;2022-09-09T01:35:11;1.02;;;1.00;;
71303;SDS011;59091;47.446;19.148;2022-09-09T01:37:40;1.50;;;1.40;;
71303;SDS011;59091;47.446;19.148;2022-09-09T01:40:06;1.10;;;1.10;;
71303;SDS011;59091;47.446;19.148;2022-09-09T01:42:32;1.25;;;1.25;;
71303;SDS011;59091;47.446;19.148;2022-09-09T01:44:57;1.60;;;1.50;;
71303;SDS011;59091;47.446;19.148;2022-09-09T01:47:22;1.70;;;1.30;;
71303;SDS011;59091;47.446;19.148;2022-09-09T01:49:48;2.83;;;1.33;;
71303;SDS011;59091;47.446;19.148;2022-09-09T01:52:13;1.40;;;1.30;;
71303;SDS011;59091;47.446;19.148;2022-09-09T01:54:38;1.58;;;1.48;;
71303;SDS011;59091;47.446;19.148;2022-09-09T01:57:14;1.48;;;1.38;;
71303;SDS011;59091;47.446;19.148;2022-09-09T01:59:57;1.20;;;1.20;;
71303;SDS011;59091;47.446;19.148;2022-09-09T02:02:32;1.35;;;1.20;;
71303;SDS011;59091;47.446;19.148;2022-09-09T02:05:11;1.67;;;1.33;;
71303;SDS011;59091;47.446;19.148;2022-09-09T02:07:49;1.60;;;1.50;;
71303;SDS011;59091;47.446;19.148;2022-09-09T02:10:22;1.55;;;1.45;;
71303;SDS011;59091;47.446;19.148;2022-09-09T02:13:00;1.65;;;1.55;;
71303;SDS011;59091;47.446;19.148;2022-09-09T02:15:38;1.60;;;1.50;;
71303;SDS011;59091;47.446;19.148;2022-09-09T02:18:10;1.63;;;1.50;;
71303;SDS011;59091;47.446;19.148;2022-09-09T02:20:38;1.95;;;1.67;;
71303;SDS011;59091;47.446;19.148;2022-09-09T02:23:05;1.50;;;1.40;;
71303;SDS011;59091;47.446;19.148;2022-09-09T02:25:33;2.00;;;1.70;;
71303;SDS011;59091;47.446;19.148;2022-09-09T02:28:01;2.35;;;2.08;;
71303;SDS011;59091;47.446;19.148;2022-09-09T02:30:29;2.28;;;1.60;;
71303;SDS011;59091;47.446;19.148;2022-09-09T02:32:59;1.80;;;1.70;;
71303;SDS011;59091;47.446;19.148;2022-09-09T02:35:28;1.65;;;1.55;;
71303;SDS011;59091;47.446;19.148;2022-09-09T02:37:56;1.77;;;1.67;;
71303;SDS011;59091;47.446;19.148;2022-09-09T02:40:26;2.13;;;1.50;;
71303;SDS011;59091;47.446;19.148;2022-09-09T02:42:53;1.98;;;1.75;;
71303;SDS011;59091;47.446;19.148;2022-09-09T02:45:20;2.10;;;1.55;;
71303;SDS011;59091;47.446;19.148;2022-09-09T02:50:49;1.60;;;1.50;;
71303;SDS011;59091;47.446;19.148;2022-09-09T02:53:31;2.30;;;1.45;;
71303;SDS011;59091;47.446;19.148;2022-09-09T02:56:05;1.35;;;1.25;;
71303;SDS011;59091;47.446;19.148;2022-09-09T02:58:37;1.85;;;1.48;;
71303;SDS011;59091;47.446;19.148;2022-09-09T03:01:04;1.50;;;1.40;;
71303;SDS011;59091;47.446;19.148;2022-09-09T03:03:29;3.15;;;1.70;;
71303;SDS011;59091;47.446;19.148;2022-09-09T03:05:56;1.30;;;1.30;;
71303;SDS011;59091;47.446;19.148;2022-09-09T03:08:22;2.42;;;1.40;;
71303;SDS011;59091;47.446;19.148;2022-09-09T03:10:47;3.17;;;1.70;;
71303;SDS011;59091;47.446;19.148;2022-09-09T03:13:12;1.63;;;1.52;;
71303;SDS011;59091;47.446;19.148;2022-09-09T03:15:40;1.40;;;1.30;;
71303;SDS011;59091;47.446;19.148;2022-09-09T03:18:06;1.45;;;1.38;;
71303;SDS011;59091;47.446;19.148;2022-09-09T03:20:31;1.85;;;1.50;;
71303;SDS011;59091;47.446;19.148;2022-09-09T03:22:57;1.60;;;1.50;;
71303;SDS011;59091;47.446;19.148;2022-09-09T03:25:23;2.60;;;1.30;;
71303;SDS011;59091;47.446;19.148;2022-09-09T03:27:49;1.60;;;1.40;;
71303;SDS011;59091;47.446;19.148;2022-09-09T03:30:15;1.48;;;1.40;;
71303;SDS011;59091;47.446;19.148;2022-09-09T03:32:41;1.45;;;1.35;;
71303;SDS011;59091;47.446;19.148;2022-09-09T03:35:06;3.10;;;1.60;;
71303;SDS011;59091;47.446;19.148;2022-09-09T03:37:32;1.83;;;1.20;;
71303;SDS011;59091;47.446;19.148;2022-09-09T03:39:57;2.65;;;1.50;;
71303;SDS011;59091;47.446;19.148;2022-09-09T03:42:24;1.48;;;1.38;;
71303;SDS011;59091;47.446;19.148;2022-09-09T03:44:50;1.70;;;1.60;;
71303;SDS011;59091;47.446;19.148;2022-09-09T03:47:19;2.10;;;1.80;;
71303;SDS011;59091;47.446;19.148;2022-09-09T03:49:47;1.60;;;1.50;;
71303;SDS011;59091;47.446;19.148;2022-09-09T03:52:13;1.50;;;1.50;;
71303;SDS011;59091;47.446;19.148;2022-09-09T03:54:39;1.65;;;1.55;;
71303;SDS011;59091;47.446;19.148;2022-09-09T03:57:06;1.90;;;1.80;;
71303;SDS011;59091;47.446;19.148;2022-09-09T03:59:31;2.17;;;1.95;;
71303;SDS011;59091;47.446;19.148;2022-09-09T04:01:57;1.80;;;1.70;;
71303;SDS011;59091;47.446;19.148;2022-09-09T04:04:24;2.95;;;1.90;;
71303;SDS011;59091;47.446;19.148;2022-09-09T04:06:51;5.00;;;1.73;;
71303;SDS011;59091;47.446;19.148;2022-09-09T04:09:17;1.55;;;1.45;;
71303;SDS011;59091;47.446;19.148;2022-09-09T04:11:42;3.90;;;1.75;;
71303;SDS011;59091;47.446;19.148;2022-09-09T04:14:07;1.67;;;1.58;;
71303;SDS011;59091;47.446;19.148;2022-09-09T04:16:34;2.97;;;1.60;;
71303;SDS011;59091;47.446;19.148;2022-09-09T04:19:02;1.80;;;1.67;;
71303;SDS011;59091;47.446;19.148;2022-09-09T04:21:29;2.33;;;1.70;;
71303;SDS011;59091;47.446;19.148;2022-09-09T04:23:55;2.97;;;1.83;;
71303;SDS011;59091;47.446;19.148;2022-09-09T04:26:20;2.28;;;1.70;;
71303;SDS011;59091;47.446;19.148;2022-09-09T04:28:46;2.40;;;2.05;;
71303;SDS011;59091;47.446;19.148;2022-09-09T04:31:18;1.70;;;1.60;;
71303;SDS011;59091;47.446;19.148;2022-09-09T04:33:46;1.90;;;1.80;;
71303;SDS011;59091;47.446;19.148;2022-09-09T04:36:12;1.85;;;1.75;;
71303;SDS011;59091;47.446;19.148;2022-09-09T04:38:37;1.77;;;1.67;;
71303;SDS011;59091;47.446;19.148;2022-09-09T04:41:05;3.78;;;2.00;;
71303;SDS011;59091;47.446;19.148;2022-09-09T04:43:30;1.70;;;1.60;;
71303;SDS011;59091;47.446;19.148;2022-09-09T04:45:56;4.50;;;1.77;;
71303;SDS011;59091;47.446;19.148;2022-09-09T04:48:21;15.60;;;3.80;;
71303;SDS011;59091;47.446;19.148;2022-09-09T04:51:06;11.63;;;3.42;;
71303;SDS011;59091;47.446;19.148;2022-09-09T04:53:35;13.32;;;3.45;;
71303;SDS011;59091;47.446;19.148;2022-09-09T04:56:07;5.20;;;2.50;;
71303;SDS011;59091;47.446;19.148;2022-09-09T04:58:37;2.15;;;1.63;;
71303;SDS011;59091;47.446;19.148;2022-09-09T05:03:30;1.85;;;1.75;;
71303;SDS011;59091;47.446;19.148;2022-09-09T05:06:02;5.72;;;2.35;;
71303;SDS011;59091;47.446;19.148;2022-09-09T05:08:29;2.67;;;1.50;;
71303;SDS011;59091;47.446;19.148;2022-09-09T05:10:54;3.72;;;1.70;;
71303;SDS011;59091;47.446;19.148;2022-09-09T05:13:20;3.42;;;1.50;;
71303;SDS011;59091;47.446;19.148;2022-09-09T05:15:52;2.55;;;1.90;;
71303;SDS011;59091;47.446;19.148;2022-09-09T05:18:18;2.78;;;1.77;;
71303;SDS011;59091;47.446;19.148;2022-09-09T05:20:44;3.58;;;1.70;;
71303;SDS011;59091;47.446;19.148;2022-09-09T05:23:09;2.35;;;1.42;;
71303;SDS011;59091;47.446;19.148;2022-09-09T05:25:38;2.00;;;1.65;;
71303;SDS011;59091;47.446;19.148;2022-09-09T05:28:03;1.70;;;1.52;;
71303;SDS011;59091;47.446;19.148;2022-09-09T05:30:30;1.48;;;1.38;;
71303;SDS011;59091;47.446;19.148;2022-09-09T05:32:56;1.67;;;1.58;;
71303;SDS011;59091;47.446;19.148;2022-09-09T05:35:21;1.83;;;1.63;;
71303;SDS011;59091;47.446;19.148;2022-09-09T05:37:48;1.70;;;1.50;;
71303;SDS011;59091;47.446;19.148;2022-09-09T05:40:13;1.75;;;1.58;;
71303;SDS011;59091;47.446;19.148;2022-09-09T05:42:39;1.88;;;1.50;;
71303;SDS011;59091;47.446;19.148;2022-09-09T05:45:06;1.50;;;1.40;;
71303;SDS011;59091;47.446;19.148;2022-09-09T05:47:32;1.77;;;1.33;;
71303;SDS011;59091;47.446;19.148;2022-09-09T05:49:58;1.58;;;1.48;;
71303;SDS011;59091;47.446;19.148;2022-09-09T05:52:24;1.58;;;1.40;;
71303;SDS011;59091;47.446;19.148;2022-09-09T05:54:50;3.92;;;1.55;;
71303;SDS011;59091;47.446;19.148;2022-09-09T05:57:16;1.60;;;1.50;;
71303;SDS011;59091;47.446;19.148;2022-09-09T05:59:42;1.65;;;1.55;;
71303;SDS011;59091;47.446;19.148;2022-09-09T06:02:08;4.10;;;1.67;;
71303;SDS011;59091;47.446;19.148;2022-09-09T06:04:34;2.42;;;1.40;;
71303;SDS011;59091;47.446;19.148;2022-09-09T06:06:59;6.65;;;1.80;;
71303;SDS011;59091;47.446;19.148;2022-09-09T06:09:26;1.60;;;1.50;;
71303;SDS011;59091;47.446;19.148;2022-09-09T06:11:51;1.60;;;1.50;;
71303;SDS011;59091;47.446;19.148;2022-09-09T06:14:17;1.80;;;1.42;;
71303;SDS011;59091;47.446;19.148;2022-09-09T06:16:43;1.30;;;1.20;;
71303;SDS011;59091;47.446;19.148;2022-09-09T06:19:09;3.05;;;1.63;;
71303;SDS011;59091;47.446;19.148;2022-09-09T06:21:35;2.20;;;1.25;;
71303;SDS011;59091;47.446;19.148;2022-09-09T06:24:05;1.27;;;1.20;;
71303;SDS011;59091;47.446;19.148;2022-09-09T06:26:32;2.88;;;1.23;;
71303;SDS011;59091;47.446;19.148;2022-09-09T06:29:03;1.38;;;1.27;;
71303;SDS011;59091;47.446;19.148;2022-09-09T06:31:29;1.42;;;1.27;;
71303;SDS011;59091;47.446;19.148;2022-09-09T06:33:56;2.65;;;1.30;;
71303;SDS011;59091;47.446;19.148;2022-09-09T06:38:52;2.33;;;1.33;;
71303;SDS011;59091;47.446;19.148;2022-09-09T06:41:20;1.58;;;1.42;;
71303;SDS011;59091;47.446;19.148;2022-09-09T06:43:46;1.63;;;1.27;;
71303;SDS011;59091;47.446;19.148;2022-09-09T06:46:13;1.40;;;1.30;;
71303;SDS011;59091;47.446;19.148;2022-09-09T06:48:40;2.83;;;1.40;;
71303;SDS011;59091;47.446;19.148;2022-09-09T06:51:08;1.88;;;1.40;;
71303;SDS011;59091;47.446;19.148;2022-09-09T06:53:38;4.07;;;1.67;;
71303;SDS011;59091;47.446;19.148;2022-09-09T06:59:10;2.08;;;1.55;;
71303;SDS011;59091;47.446;19.148;2022-09-09T07:01:40;1.50;;;1.40;;
71303;SDS011;59091;47.446;19.148;2022-09-09T07:04:11;2.92;;;1.30;;
71303;SDS011;59091;47.446;19.148;2022-09-09T07:06:39;1.95;;;1.40;;
71303;SDS011;59091;47.446;19.148;2022-09-09T07:09:09;1.75;;;1.25;;
71303;SDS011;59091;47.446;19.148;2022-09-09T07:11:40;1.42;;;1.33;;
71303;SDS011;59091;47.446;19.148;2022-09-09T07:14:07;2.88;;;1.25;;
71303;SDS011;59091;47.446;19.148;2022-09-09T07:16:33;1.27;;;1.17;;
71303;SDS011;59091;47.446;19.148;2022-09-09T07:19:02;1.67;;;1.42;;
71303;SDS011;59091;47.446;19.148;2022-09-09T07:21:28;3.15;;;1.40;;
71303;SDS011;59091;47.446;19.148;2022-09-09T07:23:55;2.72;;;1.27;;
71303;SDS011;59091;47.446;19.148;2022-09-09T07:26:25;1.40;;;1.30;;
71303;SDS011;59091;47.446;19.148;2022-09-09T07:28:52;2.00;;;1.45;;
71303;SDS011;59091;47.446;19.148;2022-09-09T07:31:19;1.52;;;1.23;;
71303;SDS011;59091;47.446;19.148;2022-09-09T07:33:46;1.98;;;1.80;;
71303;SDS011;59091;47.446;19.148;2022-09-09T07:36:17;1.88;;;1.77;;
71303;SDS011;59091;47.446;19.148;2022-09-09T07:38:49;2.28;;;1.83;;
71303;SDS011;59091;47.446;19.148;2022-09-09T07:41:20;4.28;;;1.50;;
71303;SDS011;59091;47.446;19.148;2022-09-09T07:43:48;2.85;;;1.55;;
71303;SDS011;59091;47.446;19.148;2022-09-09T07:46:14;1.85;;;1.40;;
71303;SDS011;59091;47.446;19.148;2022-09-09T07:48:45;1.70;;;1.60;;
71303;SDS011;59091;47.446;19.148;2022-09-09T07:51:16;1.70;;;1.60;;
71303;SDS011;59091;47.446;19.148;2022-09-09T07:53:44;3.30;;;1.52;;
71303;SDS011;59091;47.446;19.148;2022-09-09T07:56:15;4.47;;;1.55;;
71303;SDS011;59091;47.446;19.148;2022-09-09T07:58:42;2.67;;;1.60;;
71303;SDS011;59091;47.446;19.148;2022-09-09T08:01:12;1.70;;;1.60;;
71303;SDS011;59091;47.446;19.148;2022-09-09T08:03:43;1.70;;;1.60;;
71303;SDS011;59091;47.446;19.148;2022-09-09T08:06:09;2.97;;;1.50;;
71303;SDS011;59091;47.446;19.148;2022-09-09T08:08:37;2.35;;;1.65;;
71303;SDS011;59091;47.446;19.148;2022-09-09T08:13:34;1.60;;;1.50;;
71303;SDS011;59091;47.446;19.148;2022-09-09T08:18:35;1.67;;;1.40;;
71303;SDS011;59091;47.446;19.148;2022-09-09T08:21:14;2.55;;;1.50;;
71303;SDS011;59091;47.446;19.148;2022-09-09T08:23:47;1.48;;;1.35;;
71303;SDS011;59091;47.446;19.148;2022-09-09T08:26:16;1.83;;;1.60;;
71303;SDS011;59091;47.446;19.148;2022-09-09T08:31:16;2.05;;;1.55;;
71303;SDS011;59091;47.446;19.148;2022-09-09T08:33:43;1.40;;;1.27;;
71303;SDS011;59091;47.446;19.148;2022-09-09T08:36:11;1.50;;;1.40;;
71303;SDS011;59091;47.446;19.148;2022-09-09T08:38:40;1.35;;;1.20;;
71303;SDS011;59091;47.446;19.148;2022-09-09T08:44:04;1.90;;;1.15;;
71303;SDS011;59091;47.446;19.148;2022-09-09T08:46:42;1.80;;;1.70;;
71303;SDS011;59091;47.446;19.148;2022-09-09T08:52:22;1.52;;;1.30;;
71303;SDS011;59091;47.446;19.148;2022-09-09T08:54:52;6.53;;;1.50;;
71303;SDS011;59091;47.446;19.148;2022-09-09T08:57:25;1.40;;;1.30;;
71303;SDS011;59091;47.446;19.148;2022-09-09T08:59:52;3.33;;;1.80;;
71303;SDS011;59091;47.446;19.148;2022-09-09T09:13:14;1.10;;;1.10;;
71303;SDS011;59091;47.446;19.148;2022-09-09T09:15:43;1.60;;;1.50;;
71303;SDS011;59091;47.446;19.148;2022-09-09T09:18:15;0.90;;;0.90;;
71303;SDS011;59091;47.446;19.148;2022-09-09T09:23:44;1.70;;;1.60;;
71303;SDS011;59091;47.446;19.148;2022-09-09T09:26:15;3.65;;;1.55;;
71303;SDS011;59091;47.446;19.148;2022-09-09T09:28:42;4.65;;;1.40;;
71303;SDS011;59091;47.446;19.148;2022-09-09T09:31:09;1.17;;;1.08;;
71303;SDS011;59091;47.446;19.148;2022-09-09T09:33:51;2.65;;;1.20;;
71303;SDS011;59091;47.446;19.148;2022-09-09T09:36:19;1.10;;;1.10;;
71303;SDS011;59091;47.446;19.148;2022-09-09T09:38:58;1.30;;;1.30;;
71303;SDS011;59091;47.446;19.148;2022-09-09T09:41:28;0.90;;;0.90;;
71303;SDS011;59091;47.446;19.148;2022-09-09T09:44:29;1.20;;;1.10;;
71303;SDS011;59091;47.446;19.148;2022-09-09T09:49:38;1.42;;;1.33;;
71303;SDS011;59091;47.446;19.148;2022-09-09T09:52:05;1.45;;;1.30;;
71303;SDS011;59091;47.446;19.148;2022-09-09T09:54:33;1.45;;;1.35;;
71303;SDS011;59091;47.446;19.148;2022-09-09T09:57:10;1.00;;;0.95;;
71303;SDS011;59091;47.446;19.148;2022-09-09T09:59:36;0.95;;;0.95;;
71303;SDS011;59091;47.446;19.148;2022-09-09T10:02:18;2.72;;;1.27;;
71303;SDS011;59091;47.446;19.148;2022-09-09T10:05:05;1.27;;;1.13;;
71303;SDS011;59091;47.446;19.148;2022-09-09T10:07:37;1.40;;;1.25;;
71303;SDS011;59091;47.446;19.148;2022-09-09T10:10:04;1.92;;;1.45;;
71303;SDS011;59091;47.446;19.148;2022-09-09T10:26:52;1.45;;;1.20;;
71303;SDS011;59091;47.446;19.148;2022-09-09T10:29:30;1.00;;;1.00;;
71303;SDS011;59091;47.446;19.148;2022-09-09T10:40:17;1.55;;;1.10;;
71303;SDS011;59091;47.446;19.148;2022-09-09T10:43:10;1.70;;;1.60;;
71303;SDS011;59091;47.446;19.148;2022-09-09T10:45:48;1.20;;;1.10;;
71303;SDS011;59091;47.446;19.148;2022-09-09T10:51:12;4.75;;;1.38;;
71303;SDS011;59091;47.446;19.148;2022-09-09T10:56:22;1.10;;;1.00;;
71303;SDS011;59091;47.446;19.148;2022-09-09T11:01:31;2.67;;;1.48;;
71303;SDS011;59091;47.446;19.148;2022-09-09T11:04:22;1.50;;;1.10;;
71303;SDS011;59091;47.446;19.148;2022-09-09T11:06:54;1.25;;;1.10;;
71303;SDS011;59091;47.446;19.148;2022-09-09T11:09:27;1.35;;;0.98;;
71303;SDS011;59091;47.446;19.148;2022-09-09T11:11:58;1.25;;;1.05;;
71303;SDS011;59091;47.446;19.148;2022-09-09T11:14:36;1.33;;;1.10;;
71303;SDS011;59091;47.446;19.148;2022-09-09T11:17:10;1.25;;;0.90;;
71303;SDS011;59091;47.446;19.148;2022-09-09T11:19:39;2.55;;;1.00;;
71303;SDS011;59091;47.446;19.148;2022-09-09T11:25:13;1.58;;;1.08;;
71303;SDS011;59091;47.446;19.148;2022-09-09T11:30:44;1.10;;;1.10;;
71303;SDS011;59091;47.446;19.148;2022-09-09T11:41:53;1.10;;;1.10;;
71303;SDS011;59091;47.446;19.148;2022-09-09T11:44:25;2.15;;;1.10;;
71303;SDS011;59091;47.446;19.148;2022-09-09T11:46:55;2.30;;;1.00;;
71303;SDS011;59091;47.446;19.148;2022-09-09T11:54:44;0.90;;;0.90;;
71303;SDS011;59091;47.446;19.148;2022-09-09T11:57:25;1.00;;;1.00;;
71303;SDS011;59091;47.446;19.148;2022-09-09T11:59:57;1.30;;;1.20;;
71303;SDS011;59091;47.446;19.148;2022-09-09T12:02:24;1.80;;;1.05;;
71303;SDS011;59091;47.446;19.148;2022-09-09T12:04:55;0.90;;;0.90;;
71303;SDS011;59091;47.446;19.148;2022-09-09T12:12:51;1.10;;;1.00;;
71303;SDS011;59091;47.446;19.148;2022-09-09T12:15:19;1.10;;;1.00;;
71303;SDS011;59091;47.446;19.148;2022-09-09T12:30:22;2.65;;;1.25;;
71303;SDS011;59091;47.446;19.148;2022-09-09T12:33:00;1.98;;;1.00;;
71303;SDS011;59091;47.446;19.148;2022-09-09T12:35:27;2.97;;;1.05;;
71303;SDS011;59091;47.446;19.148;2022-09-09T12:37:56;1.38;;;1.02;;
71303;SDS011;59091;47.446;19.148;2022-09-09T12:40:26;1.95;;;1.10;;
71303;SDS011;59091;47.446;19.148;2022-09-09T12:42:53;1.08;;;1.00;;
71303;SDS011;59091;47.446;19.148;2022-09-09T12:45:22;1.00;;;1.00;;
71303;SDS011;59091;47.446;19.148;2022-09-09T12:50:21;0.95;;;0.95;;
71303;SDS011;59091;47.446;19.148;2022-09-09T12:52:50;1.10;;;1.00;;
71303;SDS011;59091;47.446;19.148;2022-09-09T12:55:20;1.10;;;0.90;;
71303;SDS011;59091;47.446;19.148;2022-09-09T12:57:49;0.90;;;0.90;;
71303;SDS011;59091;47.446;19.148;2022-09-09T13:00:17;1.20;;;1.20;;
71303;SDS011;59091;47.446;19.148;2022-09-09T13:02:55;1.00;;;1.00;;
71303;SDS011;59091;47.446;19.148;2022-09-09T13:05:23;1.55;;;1.20;;
71303;SDS011;59091;47.446;19.148;2022-09-09T13:07:50;1.10;;;1.10;;
71303;SDS011;59091;47.446;19.148;2022-09-09T13:10:26;1.10;;;1.10;;
71303;SDS011;59091;47.446;19.148;2022-09-09T13:12:54;2.70;;;1.08;;
71303;SDS011;59091;47.446;19.148;2022-09-09T13:15:23;1.23;;;1.10;;
71303;SDS011;59091;47.446;19.148;2022-09-09T13:17:52;1.00;;;1.00;;
71303;SDS011;59091;47.446;19.148;2022-09-09T13:20:20;1.63;;;1.20;;
71303;SDS011;59091;47.446;19.148;2022-09-09T13:22:47;1.00;;;1.00;;
71303;SDS011;59091;47.446;19.148;2022-09-09T13:25:23;1.30;;;1.17;;
71303;SDS011;59091;47.446;19.148;2022-09-09T13:27:59;1.17;;;1.10;;
71303;SDS011;59091;47.446;19.148;2022-09-09T13:30:34;1.23;;;1.13;;
71303;SDS011;59091;47.446;19.148;2022-09-09T13:33:06;1.20;;;1.10;;
71303;SDS011;59091;47.446;19.148;2022-09-09T13:38:21;1.25;;;1.20;;
71303;SDS011;59091;47.446;19.148;2022-09-09T13:40:57;1.20;;;1.10;;
71303;SDS011;59091;47.446;19.148;2022-09-09T13:43:27;1.08;;;1.08;;
71303;SDS011;59091;47.446;19.148;2022-09-09T13:45:58;2.33;;;0.80;;
71303;SDS011;59091;47.446;19.148;2022-09-09T13:48:26;1.00;;;1.00;;
71303;SDS011;59091;47.446;19.148;2022-09-09T13:53:53;1.08;;;1.00;;
71303;SDS011;59091;47.446;19.148;2022-09-09T13:56:18;1.00;;;1.00;;
71303;SDS011;59091;47.446;19.148;2022-09-09T13:58:43;1.30;;;1.20;;
71303;SDS011;59091;47.446;19.148;2022-09-09T14:01:09;2.50;;;1.20;;
71303;SDS011;59091;47.446;19.148;2022-09-09T14:03:36;2.80;;;0.93;;
71303;SDS011;59091;47.446;19.148;2022-09-09T14:06:02;0.80;;;0.80;;
71303;SDS011;59091;47.446;19.148;2022-09-09T14:08:27;1.00;;;1.00;;
71303;SDS011;59091;47.446;19.148;2022-09-09T14:11:01;1.13;;;1.02;;
71303;SDS011;59091;47.446;19.148;2022-09-09T14:13:27;1.00;;;0.90;;
71303;SDS011;59091;47.446;19.148;2022-09-09T14:15:53;0.90;;;0.90;;
71303;SDS011;59091;47.446;19.148;2022-09-09T14:18:18;0.80;;;0.80;;
71303;SDS011;59091;47.446;19.148;2022-09-09T14:20:44;1.58;;;1.33;;
71303;SDS011;59091;47.446;19.148;2022-09-09T14:23:10;1.30;;;1.20;;
71303;SDS011;59091;47.446;19.148;2022-09-09T14:25:39;0.95;;;0.95;;
71303;SDS011;59091;47.446;19.148;2022-09-09T14:28:05;1.00;;;1.00;;
71303;SDS011;59091;47.446;19.148;2022-09-09T14:30:34;1.15;;;1.05;;
71303;SDS011;59091;47.446;19.148;2022-09-09T14:33:00;2.70;;;0.90;;
71303;SDS011;59091;47.446;19.148;2022-09-09T14:35:26;1.10;;;0.90;;
71303;SDS011;59091;47.446;19.148;2022-09-09T14:37:51;1.13;;;1.00;;
71303;SDS011;59091;47.446;19.148;2022-09-09T14:40:17;1.27;;;0.93;;
71303;SDS011;59091;47.446;19.148;2022-09-09T14:42:42;0.90;;;0.90;;
71303;SDS011;59091;47.446;19.148;2022-09-09T14:45:08;0.80;;;0.80;;
71303;SDS011;59091;47.446;19.148;2022-09-09T14:47:34;0.90;;;0.90;;
71303;SDS011;59091;47.446;19.148;2022-09-09T14:49:59;2.35;;;1.20;;
71303;SDS011;59091;47.446;19.148;2022-09-09T14:52:26;0.88;;;0.88;;
71303;SDS011;59091;47.446;19.148;2022-09-09T14:54:51;1.20;;;1.10;;
71303;SDS011;59091;47.446;19.148;2022-09-09T14:57:16;1.00;;;1.00;;
71303;SDS011;59091;47.446;19.148;2022-09-09T14:59:42;0.88;;;0.88;;
71303;SDS011;59091;47.446;19.148;2022-09-09T15:02:08;1.63;;;1.17;;
71303;SDS011;59091;47.446;19.148;2022-09-09T15:04:34;1.73;;;1.08;;
71303;SDS011;59091;47.446;19.148;2022-09-09T15:06:59;1.85;;;1.20;;
71303;SDS011;59091;47.446;19.148;2022-09-09T15:09:24;1.40;;;1.05;;
71303;SDS011;59091;47.446;19.148;2022-09-09T15:11:50;1.10;;;1.10;;
71303;SDS011;59091;47.446;19.148;2022-09-09T15:14:15;2.58;;;1.00;;
71303;SDS011;59091;47.446;19.148;2022-09-09T15:16:41;1.70;;;1.10;;
71303;SDS011;59091;47.446;19.148;2022-09-09T15:19:07;1.50;;;1.13;;
71303;SDS011;59091;47.446;19.148;2022-09-09T15:21:33;1.88;;;1.35;;
71303;SDS011;59091;47.446;19.148;2022-09-09T15:24:00;1.02;;;1.02;;
71303;SDS011;59091;47.446;19.148;2022-09-09T15:26:25;1.10;;;1.10;;
71303;SDS011;59091;47.446;19.148;2022-09-09T15:28:52;1.20;;;1.20;;
71303;SDS011;59091;47.446;19.148;2022-09-09T15:31:21;1.30;;;1.10;;
71303;SDS011;59091;47.446;19.148;2022-09-09T15:36:28;0.90;;;0.90;;
71303;SDS011;59091;47.446;19.148;2022-09-09T15:39:02;1.00;;;1.00;;
71303;SDS011;59091;47.446;19.148;2022-09-09T15:41:29;2.60;;;1.10;;
71303;SDS011;59091;47.446;19.148;2022-09-09T15:43:56;1.38;;;1.27;;
71303;SDS011;59091;47.446;19.148;2022-09-09T15:48:51;2.85;;;1.02;;
71303;SDS011;59091;47.446;19.148;2022-09-09T15:51:17;2.15;;;1.13;;
71303;SDS011;59091;47.446;19.148;2022-09-09T15:53:43;1.17;;;1.17;;
71303;SDS011;59091;47.446;19.148;2022-09-09T15:56:10;1.10;;;1.10;;
71303;SDS011;59091;47.446;19.148;2022-09-09T15:58:36;0.90;;;0.90;;
71303;SDS011;59091;47.446;19.148;2022-09-09T16:01:05;0.90;;;0.90;;
71303;SDS011;59091;47.446;19.148;2022-09-09T16:03:35;1.00;;;1.00;;
71303;SDS011;59091;47.446;19.148;2022-09-09T16:06:02;1.25;;;1.23;;
71303;SDS011;59091;47.446;19.148;2022-09-09T16:08:32;2.78;;;1.10;;
71303;SDS011;59091;47.446;19.148;2022-09-09T16:11:06;1.27;;;1.10;;
71303;SDS011;59091;47.446;19.148;2022-09-09T16:13:34;1.00;;;0.98;;
71303;SDS011;59091;47.446;19.148;2022-09-09T16:16:04;0.93;;;0.93;;
71303;SDS011;59091;47.446;19.148;2022-09-09T16:18:38;0.95;;;0.95;;
71303;SDS011;59091;47.446;19.148;2022-09-09T16:21:07;1.67;;;1.58;;
71303;SDS011;59091;47.446;19.148;2022-09-09T16:23:37;1.48;;;1.38;;
71303;SDS011;59091;47.446;19.148;2022-09-09T16:26:04;1.10;;;1.10;;
71303;SDS011;59091;47.446;19.148;2022-09-09T16:28:30;4.97;;;1.70;;
71303;SDS011;59091;47.446;19.148;2022-09-09T16:30:55;10.85;;;4.03;;
71303;SDS011;59091;47.446;19.148;2022-09-09T16:33:21;33.22;;;6.90;;
71303;SDS011;59091;47.446;19.148;2022-09-09T16:35:47;5.47;;;2.17;;
71303;SDS011;59091;47.446;19.148;2022-09-09T16:38:14;5.70;;;2.55;;
71303;SDS011;59091;47.446;19.148;2022-09-09T16:40:39;4.18;;;1.58;;
71303;SDS011;59091;47.446;19.148;2022-09-09T16:43:06;4.78;;;1.80;;
71303;SDS011;59091;47.446;19.148;2022-09-09T16:45:32;3.55;;;2.20;;
71303;SDS011;59091;47.446;19.148;2022-09-09T16:47:58;4.10;;;2.42;;
71303;SDS011;59091;47.446;19.148;2022-09-09T16:50:25;3.40;;;2.35;;
71303;SDS011;59091;47.446;19.148;2022-09-09T16:52:51;3.30;;;2.40;;
71303;SDS011;59091;47.446;19.148;2022-09-09T16:55:17;3.50;;;2.25;;
71303;SDS011;59091;47.446;19.148;2022-09-09T16:57:45;3.03;;;1.88;;
71303;SDS011;59091;47.446;19.148;2022-09-09T17:00:13;4.22;;;2.15;;
71303;SDS011;59091;47.446;19.148;2022-09-09T17:02:39;3.30;;;1.85;;
71303;SDS011;59091;47.446;19.148;2022-09-09T17:05:04;3.33;;;1.98;;
71303;SDS011;59091;47.446;19.148;2022-09-09T17:07:30;3.08;;;1.75;;
71303;SDS011;59091;47.446;19.148;2022-09-09T17:09:57;2.58;;;2.08;;
71303;SDS011;59091;47.446;19.148;2022-09-09T17:12:22;3.58;;;2.38;;
71303;SDS011;59091;47.446;19.148;2022-09-09T17:14:47;5.00;;;3.42;;
71303;SDS011;59091;47.446;19.148;2022-09-09T17:17:13;7.05;;;3.40;;
71303;SDS011;59091;47.446;19.148;2022-09-09T17:19:38;3.60;;;3.25;;
71303;SDS011;59091;47.446;19.148;2022-09-09T17:22:03;4.40;;;3.03;;